sensor_id;sensor_type;location;lat;lon;timestamp;P1;durP1;ratioP1;P2;durP2;ratioP2
18726;SDS011;9492;51.888;5.186;2022-12-18T00:00:45;57.83;;;25.97;;
18726;SDS011;9492;51.888;5.186;2022-12-18T00:03:14;62.23;;;26.80;;
18726;SDS011;9492;51.888;5.186;2022-12-18T00:05:47;64.67;;;28.83;;
18726;SDS011;9492;51.888;5.186;2022-12-18T00:08:13;58.43;;;29.23;;
18726;SDS011;9492;51.888;5.186;2022-12-18T00:10:39;61.67;;;29.60;;
18726;SDS011;9492;51.888;5.186;2022-12-18T00:13:05;57.87;;;29.57;;
18726;SDS011;9492;51.888;5.186;2022-12-18T00:15:35;63.17;;;30.93;;
18726;SDS011;9492;51.888;5.186;2022-12-18T00:18:01;66.10;;;29.30;;
18726;SDS011;9492;51.888;5.186;2022-12-18T00:20:27;72.80;;;29.83;;
18726;SDS011;9492;51.888;5.186;2022-12-18T00:22:53;57.70;;;30.27;;
18726;SDS011;9492;51.888;5.186;2022-12-18T00:25:20;65.63;;;30.13;;
18726;SDS011;9492;51.888;5.186;2022-12-18T00:27:46;61.90;;;28.73;;
18726;SDS011;9492;51.888;5.186;2022-12-18T00:30:12;67.07;;;28.90;;
18726;SDS011;9492;51.888;5.186;2022-12-18T00:32:38;68.40;;;31.43;;
18726;SDS011;9492;51.888;5.186;2022-12-18T00:35:04;70.53;;;30.40;;
18726;SDS011;9492;51.888;5.186;2022-12-18T00:37:33;78.00;;;29.27;;
18726;SDS011;9492;51.888;5.186;2022-12-18T00:39:59;71.53;;;31.80;;
18726;SDS011;9492;51.888;5.186;2022-12-18T00:42:25;59.77;;;27.23;;
18726;SDS011;9492;51.888;5.186;2022-12-18T00:45:10;61.30;;;27.40;;
18726;SDS011;9492;51.888;5.186;2022-12-18T00:47:35;71.73;;;30.40;;
18726;SDS011;9492;51.888;5.186;2022-12-18T00:50:01;61.30;;;29.23;;
18726;SDS011;9492;51.888;5.186;2022-12-18T00:52:27;59.30;;;27.77;;
18726;SDS011;9492;51.888;5.186;2022-12-18T00:54:53;62.80;;;28.07;;
18726;SDS011;9492;51.888;5.186;2022-12-18T00:57:19;61.50;;;28.57;;
18726;SDS011;9492;51.888;5.186;2022-12-18T00:59:45;65.53;;;29.40;;
18726;SDS011;9492;51.888;5.186;2022-12-18T01:02:12;69.70;;;30.67;;
18726;SDS011;9492;51.888;5.186;2022-12-18T01:04:38;63.03;;;27.37;;
18726;SDS011;9492;51.888;5.186;2022-12-18T01:07:04;62.80;;;27.93;;
18726;SDS011;9492;51.888;5.186;2022-12-18T01:09:30;63.97;;;27.23;;
18726;SDS011;9492;51.888;5.186;2022-12-18T01:11:56;63.83;;;27.63;;
18726;SDS011;9492;51.888;5.186;2022-12-18T01:14:22;57.80;;;26.57;;
18726;SDS011;9492;51.888;5.186;2022-12-18T01:16:48;60.83;;;27.30;;
18726;SDS011;9492;51.888;5.186;2022-12-18T01:19:14;56.97;;;27.63;;
18726;SDS011;9492;51.888;5.186;2022-12-18T01:21:40;61.87;;;26.60;;
18726;SDS011;9492;51.888;5.186;2022-12-18T01:24:06;57.50;;;28.53;;
18726;SDS011;9492;51.888;5.186;2022-12-18T01:26:32;59.10;;;27.37;;
18726;SDS011;9492;51.888;5.186;2022-12-18T01:28:58;51.97;;;26.53;;
18726;SDS011;9492;51.888;5.186;2022-12-18T01:31:25;54.73;;;26.33;;
18726;SDS011;9492;51.888;5.186;2022-12-18T01:33:52;54.70;;;25.60;;
18726;SDS011;9492;51.888;5.186;2022-12-18T01:38:44;48.27;;;23.90;;
18726;SDS011;9492;51.888;5.186;2022-12-18T01:41:10;56.27;;;27.30;;
18726;SDS011;9492;51.888;5.186;2022-12-18T01:43:43;53.83;;;25.03;;
18726;SDS011;9492;51.888;5.186;2022-12-18T01:46:10;46.57;;;24.83;;
18726;SDS011;9492;51.888;5.186;2022-12-18T01:48:36;57.00;;;24.50;;
18726;SDS011;9492;51.888;5.186;2022-12-18T01:51:02;55.37;;;27.70;;
18726;SDS011;9492;51.888;5.186;2022-12-18T01:53:28;52.00;;;26.17;;
18726;SDS011;9492;51.888;5.186;2022-12-18T01:55:55;55.67;;;26.93;;
18726;SDS011;9492;51.888;5.186;2022-12-18T01:58:55;60.13;;;26.80;;
18726;SDS011;9492;51.888;5.186;2022-12-18T02:01:14;60.37;;;28.70;;
18726;SDS011;9492;51.888;5.186;2022-12-18T02:03:43;54.20;;;27.23;;
18726;SDS011;9492;51.888;5.186;2022-12-18T02:06:12;55.17;;;27.27;;
18726;SDS011;9492;51.888;5.186;2022-12-18T02:11:15;51.77;;;25.43;;
18726;SDS011;9492;51.888;5.186;2022-12-18T02:14:00;55.27;;;27.50;;
18726;SDS011;9492;51.888;5.186;2022-12-18T02:16:41;52.97;;;26.87;;
18726;SDS011;9492;51.888;5.186;2022-12-18T02:22:03;54.33;;;28.03;;
18726;SDS011;9492;51.888;5.186;2022-12-18T02:24:35;53.90;;;26.33;;
18726;SDS011;9492;51.888;5.186;2022-12-18T02:27:04;56.43;;;26.90;;
18726;SDS011;9492;51.888;5.186;2022-12-18T02:32:00;52.50;;;25.50;;
18726;SDS011;9492;51.888;5.186;2022-12-18T02:34:28;55.93;;;26.47;;
18726;SDS011;9492;51.888;5.186;2022-12-18T02:36:56;50.60;;;25.63;;
18726;SDS011;9492;51.888;5.186;2022-12-18T02:39:23;47.83;;;24.90;;
18726;SDS011;9492;51.888;5.186;2022-12-18T02:41:50;52.00;;;25.17;;
18726;SDS011;9492;51.888;5.186;2022-12-18T02:44:17;51.37;;;26.10;;
18726;SDS011;9492;51.888;5.186;2022-12-18T02:46:44;47.43;;;24.57;;
18726;SDS011;9492;51.888;5.186;2022-12-18T02:49:34;49.40;;;25.30;;
18726;SDS011;9492;51.888;5.186;2022-12-18T02:52:01;48.37;;;25.10;;
18726;SDS011;9492;51.888;5.186;2022-12-18T02:57:17;47.27;;;24.80;;
18726;SDS011;9492;51.888;5.186;2022-12-18T03:02:29;53.13;;;26.37;;
18726;SDS011;9492;51.888;5.186;2022-12-18T03:07:28;47.30;;;25.43;;
18726;SDS011;9492;51.888;5.186;2022-12-18T03:09:59;47.30;;;25.20;;
18726;SDS011;9492;51.888;5.186;2022-12-18T03:12:40;49.10;;;24.70;;
18726;SDS011;9492;51.888;5.186;2022-12-18T03:15:10;46.47;;;24.70;;
18726;SDS011;9492;51.888;5.186;2022-12-18T03:17:39;46.53;;;23.70;;
18726;SDS011;9492;51.888;5.186;2022-12-18T03:20:08;45.97;;;24.43;;
18726;SDS011;9492;51.888;5.186;2022-12-18T03:22:35;45.33;;;24.07;;
18726;SDS011;9492;51.888;5.186;2022-12-18T03:25:04;42.13;;;23.20;;
18726;SDS011;9492;51.888;5.186;2022-12-18T03:27:31;47.40;;;25.90;;
18726;SDS011;9492;51.888;5.186;2022-12-18T03:30:06;48.17;;;23.93;;
18726;SDS011;9492;51.888;5.186;2022-12-18T03:32:35;42.40;;;23.10;;
18726;SDS011;9492;51.888;5.186;2022-12-18T03:35:05;43.93;;;22.97;;
18726;SDS011;9492;51.888;5.186;2022-12-18T03:37:31;41.77;;;22.33;;
18726;SDS011;9492;51.888;5.186;2022-12-18T03:39:57;41.37;;;22.80;;
18726;SDS011;9492;51.888;5.186;2022-12-18T03:45:06;44.10;;;23.07;;
18726;SDS011;9492;51.888;5.186;2022-12-18T03:47:46;45.60;;;23.70;;
18726;SDS011;9492;51.888;5.186;2022-12-18T03:50:30;46.30;;;24.83;;
18726;SDS011;9492;51.888;5.186;2022-12-18T03:53:08;42.97;;;24.23;;
18726;SDS011;9492;51.888;5.186;2022-12-18T03:55:36;39.43;;;22.87;;
18726;SDS011;9492;51.888;5.186;2022-12-18T03:58:03;40.53;;;22.50;;
18726;SDS011;9492;51.888;5.186;2022-12-18T04:00:31;41.00;;;21.97;;
18726;SDS011;9492;51.888;5.186;2022-12-18T04:02:57;39.50;;;21.70;;
18726;SDS011;9492;51.888;5.186;2022-12-18T04:05:25;39.63;;;21.13;;
18726;SDS011;9492;51.888;5.186;2022-12-18T04:07:52;46.63;;;22.03;;
18726;SDS011;9492;51.888;5.186;2022-12-18T04:10:19;35.03;;;21.47;;
18726;SDS011;9492;51.888;5.186;2022-12-18T04:12:45;37.60;;;20.70;;
18726;SDS011;9492;51.888;5.186;2022-12-18T04:15:11;37.50;;;21.20;;
18726;SDS011;9492;51.888;5.186;2022-12-18T04:17:38;40.57;;;21.57;;
18726;SDS011;9492;51.888;5.186;2022-12-18T04:20:04;41.13;;;23.33;;
18726;SDS011;9492;51.888;5.186;2022-12-18T04:22:30;40.30;;;23.77;;
18726;SDS011;9492;51.888;5.186;2022-12-18T04:24:56;45.23;;;24.50;;
18726;SDS011;9492;51.888;5.186;2022-12-18T04:27:22;39.87;;;23.83;;
18726;SDS011;9492;51.888;5.186;2022-12-18T04:29:48;39.00;;;24.37;;
18726;SDS011;9492;51.888;5.186;2022-12-18T04:32:14;44.93;;;24.73;;
18726;SDS011;9492;51.888;5.186;2022-12-18T04:34:40;36.30;;;22.90;;
18726;SDS011;9492;51.888;5.186;2022-12-18T04:37:06;44.80;;;24.27;;
18726;SDS011;9492;51.888;5.186;2022-12-18T04:39:32;40.07;;;24.23;;
18726;SDS011;9492;51.888;5.186;2022-12-18T04:41:58;40.80;;;23.77;;
18726;SDS011;9492;51.888;5.186;2022-12-18T04:44:24;38.87;;;24.23;;
18726;SDS011;9492;51.888;5.186;2022-12-18T04:46:50;41.27;;;25.53;;
18726;SDS011;9492;51.888;5.186;2022-12-18T04:49:16;38.20;;;22.20;;
18726;SDS011;9492;51.888;5.186;2022-12-18T04:51:42;39.90;;;24.40;;
18726;SDS011;9492;51.888;5.186;2022-12-18T04:54:08;43.00;;;24.50;;
18726;SDS011;9492;51.888;5.186;2022-12-18T04:56:34;40.33;;;24.33;;
18726;SDS011;9492;51.888;5.186;2022-12-18T04:59:00;38.67;;;23.30;;
18726;SDS011;9492;51.888;5.186;2022-12-18T05:01:26;36.27;;;23.40;;
18726;SDS011;9492;51.888;5.186;2022-12-18T05:03:52;40.03;;;25.20;;
18726;SDS011;9492;51.888;5.186;2022-12-18T05:06:18;39.83;;;23.20;;
18726;SDS011;9492;51.888;5.186;2022-12-18T05:08:44;37.93;;;23.90;;
18726;SDS011;9492;51.888;5.186;2022-12-18T05:11:11;37.07;;;23.67;;
18726;SDS011;9492;51.888;5.186;2022-12-18T05:13:40;40.17;;;23.13;;
18726;SDS011;9492;51.888;5.186;2022-12-18T05:16:06;35.90;;;21.87;;
18726;SDS011;9492;51.888;5.186;2022-12-18T05:18:32;37.10;;;22.40;;
18726;SDS011;9492;51.888;5.186;2022-12-18T05:20:58;35.07;;;21.03;;
18726;SDS011;9492;51.888;5.186;2022-12-18T05:23:25;35.77;;;22.13;;
18726;SDS011;9492;51.888;5.186;2022-12-18T05:28:17;36.77;;;22.00;;
18726;SDS011;9492;51.888;5.186;2022-12-18T05:30:47;34.53;;;20.60;;
18726;SDS011;9492;51.888;5.186;2022-12-18T05:33:13;34.20;;;21.77;;
18726;SDS011;9492;51.888;5.186;2022-12-18T05:35:39;34.77;;;21.83;;
18726;SDS011;9492;51.888;5.186;2022-12-18T05:38:05;31.30;;;19.97;;
18726;SDS011;9492;51.888;5.186;2022-12-18T05:40:31;31.63;;;20.40;;
18726;SDS011;9492;51.888;5.186;2022-12-18T05:42:57;34.00;;;20.00;;
18726;SDS011;9492;51.888;5.186;2022-12-18T05:45:23;30.03;;;19.30;;
18726;SDS011;9492;51.888;5.186;2022-12-18T05:47:49;32.17;;;19.00;;
18726;SDS011;9492;51.888;5.186;2022-12-18T05:50:15;33.43;;;18.97;;
18726;SDS011;9492;51.888;5.186;2022-12-18T05:52:41;31.30;;;19.97;;
18726;SDS011;9492;51.888;5.186;2022-12-18T05:55:07;28.13;;;17.70;;
18726;SDS011;9492;51.888;5.186;2022-12-18T05:57:33;28.63;;;18.33;;
18726;SDS011;9492;51.888;5.186;2022-12-18T05:59:59;26.63;;;17.37;;
18726;SDS011;9492;51.888;5.186;2022-12-18T06:02:25;28.33;;;17.63;;
18726;SDS011;9492;51.888;5.186;2022-12-18T06:04:51;30.87;;;17.63;;
18726;SDS011;9492;51.888;5.186;2022-12-18T06:07:17;29.90;;;18.40;;
18726;SDS011;9492;51.888;5.186;2022-12-18T06:09:43;26.33;;;17.13;;
18726;SDS011;9492;51.888;5.186;2022-12-18T06:12:09;30.73;;;16.60;;
18726;SDS011;9492;51.888;5.186;2022-12-18T06:14:35;28.53;;;16.47;;
18726;SDS011;9492;51.888;5.186;2022-12-18T06:17:01;26.23;;;16.57;;
18726;SDS011;9492;51.888;5.186;2022-12-18T06:19:27;25.50;;;15.67;;
18726;SDS011;9492;51.888;5.186;2022-12-18T06:21:53;26.90;;;16.43;;
18726;SDS011;9492;51.888;5.186;2022-12-18T06:24:19;29.17;;;16.77;;
18726;SDS011;9492;51.888;5.186;2022-12-18T06:26:45;26.03;;;15.73;;
18726;SDS011;9492;51.888;5.186;2022-12-18T06:29:11;25.90;;;15.80;;
18726;SDS011;9492;51.888;5.186;2022-12-18T06:31:37;22.67;;;15.03;;
18726;SDS011;9492;51.888;5.186;2022-12-18T06:34:04;24.03;;;15.20;;
18726;SDS011;9492;51.888;5.186;2022-12-18T06:36:30;24.37;;;15.60;;
18726;SDS011;9492;51.888;5.186;2022-12-18T06:38:56;22.03;;;15.43;;
18726;SDS011;9492;51.888;5.186;2022-12-18T06:41:22;25.27;;;16.37;;
18726;SDS011;9492;51.888;5.186;2022-12-18T06:43:48;24.10;;;14.97;;
18726;SDS011;9492;51.888;5.186;2022-12-18T06:46:14;23.13;;;14.23;;
18726;SDS011;9492;51.888;5.186;2022-12-18T06:48:40;22.73;;;14.50;;
18726;SDS011;9492;51.888;5.186;2022-12-18T06:51:07;24.63;;;15.53;;
18726;SDS011;9492;51.888;5.186;2022-12-18T06:53:33;24.87;;;15.43;;
18726;SDS011;9492;51.888;5.186;2022-12-18T06:56:03;26.23;;;15.80;;
18726;SDS011;9492;51.888;5.186;2022-12-18T06:58:29;25.83;;;15.27;;
18726;SDS011;9492;51.888;5.186;2022-12-18T07:01:01;24.20;;;14.00;;
18726;SDS011;9492;51.888;5.186;2022-12-18T07:03:27;23.03;;;14.97;;
18726;SDS011;9492;51.888;5.186;2022-12-18T07:05:53;24.23;;;14.13;;
18726;SDS011;9492;51.888;5.186;2022-12-18T07:08:20;23.30;;;14.13;;
18726;SDS011;9492;51.888;5.186;2022-12-18T07:10:46;20.80;;;14.00;;
18726;SDS011;9492;51.888;5.186;2022-12-18T07:13:14;22.27;;;13.73;;
18726;SDS011;9492;51.888;5.186;2022-12-18T07:15:40;20.97;;;14.47;;
18726;SDS011;9492;51.888;5.186;2022-12-18T07:18:06;22.87;;;13.73;;
18726;SDS011;9492;51.888;5.186;2022-12-18T07:20:32;22.70;;;13.63;;
18726;SDS011;9492;51.888;5.186;2022-12-18T07:22:58;24.13;;;14.53;;
18726;SDS011;9492;51.888;5.186;2022-12-18T07:25:24;26.47;;;14.83;;
18726;SDS011;9492;51.888;5.186;2022-12-18T07:27:50;20.13;;;13.17;;
18726;SDS011;9492;51.888;5.186;2022-12-18T07:30:16;25.10;;;14.07;;
18726;SDS011;9492;51.888;5.186;2022-12-18T07:32:42;22.17;;;14.30;;
18726;SDS011;9492;51.888;5.186;2022-12-18T07:35:08;19.57;;;12.93;;
18726;SDS011;9492;51.888;5.186;2022-12-18T07:37:34;23.07;;;13.23;;
18726;SDS011;9492;51.888;5.186;2022-12-18T07:40:00;22.33;;;14.37;;
18726;SDS011;9492;51.888;5.186;2022-12-18T07:42:26;23.67;;;13.57;;
18726;SDS011;9492;51.888;5.186;2022-12-18T07:44:55;25.17;;;14.60;;
18726;SDS011;9492;51.888;5.186;2022-12-18T07:47:21;24.03;;;13.73;;
18726;SDS011;9492;51.888;5.186;2022-12-18T07:49:47;22.77;;;14.60;;
18726;SDS011;9492;51.888;5.186;2022-12-18T07:52:13;21.10;;;13.20;;
18726;SDS011;9492;51.888;5.186;2022-12-18T07:54:39;22.00;;;15.00;;
18726;SDS011;9492;51.888;5.186;2022-12-18T07:57:05;23.23;;;14.07;;
18726;SDS011;9492;51.888;5.186;2022-12-18T07:59:31;23.50;;;13.87;;
18726;SDS011;9492;51.888;5.186;2022-12-18T08:01:57;30.30;;;15.60;;
18726;SDS011;9492;51.888;5.186;2022-12-18T08:04:23;25.13;;;14.17;;
18726;SDS011;9492;51.888;5.186;2022-12-18T08:06:49;22.07;;;14.13;;
18726;SDS011;9492;51.888;5.186;2022-12-18T08:09:15;26.67;;;15.40;;
18726;SDS011;9492;51.888;5.186;2022-12-18T08:11:42;23.70;;;14.57;;
18726;SDS011;9492;51.888;5.186;2022-12-18T08:14:08;23.13;;;14.43;;
18726;SDS011;9492;51.888;5.186;2022-12-18T08:16:34;21.67;;;14.47;;
18726;SDS011;9492;51.888;5.186;2022-12-18T08:19:00;22.33;;;13.70;;
18726;SDS011;9492;51.888;5.186;2022-12-18T08:21:27;22.50;;;13.27;;
18726;SDS011;9492;51.888;5.186;2022-12-18T08:23:56;24.53;;;15.00;;
18726;SDS011;9492;51.888;5.186;2022-12-18T08:26:22;24.70;;;15.73;;
18726;SDS011;9492;51.888;5.186;2022-12-18T08:28:49;24.00;;;14.93;;
18726;SDS011;9492;51.888;5.186;2022-12-18T08:31:15;27.40;;;15.93;;
18726;SDS011;9492;51.888;5.186;2022-12-18T08:33:41;27.73;;;16.03;;
18726;SDS011;9492;51.888;5.186;2022-12-18T08:36:08;25.50;;;15.40;;
18726;SDS011;9492;51.888;5.186;2022-12-18T08:38:34;24.00;;;14.77;;
18726;SDS011;9492;51.888;5.186;2022-12-18T08:41:04;24.90;;;14.13;;
18726;SDS011;9492;51.888;5.186;2022-12-18T08:43:31;21.23;;;14.87;;
18726;SDS011;9492;51.888;5.186;2022-12-18T08:46:15;24.83;;;15.43;;
18726;SDS011;9492;51.888;5.186;2022-12-18T08:48:42;21.63;;;14.20;;
18726;SDS011;9492;51.888;5.186;2022-12-18T08:51:08;24.23;;;14.33;;
18726;SDS011;9492;51.888;5.186;2022-12-18T08:53:34;25.97;;;15.10;;
18726;SDS011;9492;51.888;5.186;2022-12-18T08:56:00;21.70;;;14.30;;
18726;SDS011;9492;51.888;5.186;2022-12-18T08:58:26;23.20;;;14.87;;
18726;SDS011;9492;51.888;5.186;2022-12-18T09:00:52;22.87;;;14.00;;
18726;SDS011;9492;51.888;5.186;2022-12-18T09:03:19;22.47;;;14.80;;
18726;SDS011;9492;51.888;5.186;2022-12-18T09:05:47;24.30;;;14.80;;
18726;SDS011;9492;51.888;5.186;2022-12-18T09:08:13;24.07;;;14.77;;
18726;SDS011;9492;51.888;5.186;2022-12-18T09:10:45;20.20;;;13.20;;
18726;SDS011;9492;51.888;5.186;2022-12-18T09:13:11;24.67;;;15.40;;
18726;SDS011;9492;51.888;5.186;2022-12-18T09:15:41;21.73;;;15.13;;
18726;SDS011;9492;51.888;5.186;2022-12-18T09:18:08;22.37;;;14.53;;
18726;SDS011;9492;51.888;5.186;2022-12-18T09:20:35;24.37;;;14.13;;
18726;SDS011;9492;51.888;5.186;2022-12-18T09:23:01;21.37;;;13.73;;
18726;SDS011;9492;51.888;5.186;2022-12-18T09:25:28;24.60;;;14.97;;
18726;SDS011;9492;51.888;5.186;2022-12-18T09:27:58;23.37;;;14.70;;
18726;SDS011;9492;51.888;5.186;2022-12-18T09:30:24;23.33;;;14.63;;
18726;SDS011;9492;51.888;5.186;2022-12-18T09:32:50;23.33;;;14.63;;
18726;SDS011;9492;51.888;5.186;2022-12-18T09:35:15;26.53;;;15.17;;
18726;SDS011;9492;51.888;5.186;2022-12-18T09:37:42;22.53;;;13.83;;
18726;SDS011;9492;51.888;5.186;2022-12-18T09:40:18;21.07;;;13.90;;
18726;SDS011;9492;51.888;5.186;2022-12-18T09:42:45;25.03;;;14.60;;
18726;SDS011;9492;51.888;5.186;2022-12-18T09:45:13;25.03;;;14.03;;
18726;SDS011;9492;51.888;5.186;2022-12-18T09:47:39;22.97;;;14.87;;
18726;SDS011;9492;51.888;5.186;2022-12-18T09:50:16;22.20;;;14.03;;
18726;SDS011;9492;51.888;5.186;2022-12-18T09:52:47;21.07;;;13.20;;
18726;SDS011;9492;51.888;5.186;2022-12-18T09:57:42;23.17;;;13.20;;
18726;SDS011;9492;51.888;5.186;2022-12-18T10:00:21;23.67;;;13.87;;
18726;SDS011;9492;51.888;5.186;2022-12-18T10:02:47;23.03;;;13.57;;
18726;SDS011;9492;51.888;5.186;2022-12-18T10:05:16;19.97;;;13.17;;
18726;SDS011;9492;51.888;5.186;2022-12-18T10:12:59;20.60;;;13.00;;
18726;SDS011;9492;51.888;5.186;2022-12-18T10:15:36;23.57;;;14.40;;
18726;SDS011;9492;51.888;5.186;2022-12-18T10:18:18;24.37;;;14.60;;
18726;SDS011;9492;51.888;5.186;2022-12-18T10:20:52;23.97;;;14.13;;
18726;SDS011;9492;51.888;5.186;2022-12-18T10:25:53;27.83;;;14.53;;
18726;SDS011;9492;51.888;5.186;2022-12-18T10:28:20;26.00;;;14.27;;
18726;SDS011;9492;51.888;5.186;2022-12-18T10:30:46;20.93;;;14.37;;
18726;SDS011;9492;51.888;5.186;2022-12-18T10:33:16;22.47;;;14.80;;
18726;SDS011;9492;51.888;5.186;2022-12-18T10:35:43;23.00;;;13.30;;
18726;SDS011;9492;51.888;5.186;2022-12-18T10:43:19;22.53;;;14.20;;
18726;SDS011;9492;51.888;5.186;2022-12-18T10:45:57;21.33;;;13.57;;
18726;SDS011;9492;51.888;5.186;2022-12-18T10:48:25;22.67;;;12.93;;
18726;SDS011;9492;51.888;5.186;2022-12-18T10:50:51;22.47;;;14.83;;
18726;SDS011;9492;51.888;5.186;2022-12-18T10:53:24;25.60;;;14.90;;
18726;SDS011;9492;51.888;5.186;2022-12-18T10:55:51;21.73;;;13.60;;
18726;SDS011;9492;51.888;5.186;2022-12-18T11:01:01;21.90;;;14.07;;
18726;SDS011;9492;51.888;5.186;2022-12-18T11:03:44;24.10;;;13.43;;
18726;SDS011;9492;51.888;5.186;2022-12-18T11:06:11;18.00;;;13.07;;
18726;SDS011;9492;51.888;5.186;2022-12-18T11:08:37;24.30;;;15.17;;
18726;SDS011;9492;51.888;5.186;2022-12-18T11:11:04;22.63;;;15.07;;
18726;SDS011;9492;51.888;5.186;2022-12-18T11:13:32;22.33;;;13.87;;
18726;SDS011;9492;51.888;5.186;2022-12-18T11:15:58;21.80;;;14.90;;
18726;SDS011;9492;51.888;5.186;2022-12-18T11:18:27;22.83;;;14.23;;
18726;SDS011;9492;51.888;5.186;2022-12-18T11:20:57;19.70;;;14.07;;
18726;SDS011;9492;51.888;5.186;2022-12-18T11:23:25;24.07;;;14.43;;
18726;SDS011;9492;51.888;5.186;2022-12-18T11:25:55;24.57;;;14.33;;
18726;SDS011;9492;51.888;5.186;2022-12-18T11:28:29;21.93;;;14.07;;
18726;SDS011;9492;51.888;5.186;2022-12-18T11:33:56;24.53;;;14.57;;
18726;SDS011;9492;51.888;5.186;2022-12-18T11:36:25;20.20;;;13.87;;
18726;SDS011;9492;51.888;5.186;2022-12-18T11:38:52;22.37;;;14.50;;
18726;SDS011;9492;51.888;5.186;2022-12-18T11:44:14;25.93;;;14.97;;
18726;SDS011;9492;51.888;5.186;2022-12-18T11:46:53;24.60;;;13.93;;
18726;SDS011;9492;51.888;5.186;2022-12-18T11:49:28;24.13;;;14.33;;
18726;SDS011;9492;51.888;5.186;2022-12-18T11:52:01;24.27;;;14.73;;
18726;SDS011;9492;51.888;5.186;2022-12-18T11:54:29;24.43;;;13.93;;
18726;SDS011;9492;51.888;5.186;2022-12-18T12:02:01;23.93;;;13.87;;
18726;SDS011;9492;51.888;5.186;2022-12-18T12:04:56;23.13;;;14.13;;
18726;SDS011;9492;51.888;5.186;2022-12-18T12:07:28;22.37;;;14.23;;
18726;SDS011;9492;51.888;5.186;2022-12-18T12:15:23;21.83;;;13.27;;
18726;SDS011;9492;51.888;5.186;2022-12-18T12:17:54;21.60;;;14.20;;
18726;SDS011;9492;51.888;5.186;2022-12-18T12:20:23;23.17;;;14.17;;
18726;SDS011;9492;51.888;5.186;2022-12-18T12:30:30;20.43;;;14.00;;
18726;SDS011;9492;51.888;5.186;2022-12-18T12:38:20;21.53;;;13.53;;
18726;SDS011;9492;51.888;5.186;2022-12-18T12:40:58;27.63;;;16.30;;
18726;SDS011;9492;51.888;5.186;2022-12-18T12:43:38;24.47;;;15.33;;
18726;SDS011;9492;51.888;5.186;2022-12-18T12:46:07;21.63;;;13.93;;
18726;SDS011;9492;51.888;5.186;2022-12-18T12:51:01;21.73;;;14.53;;
18726;SDS011;9492;51.888;5.186;2022-12-18T12:53:31;24.50;;;15.30;;
18726;SDS011;9492;51.888;5.186;2022-12-18T12:55:58;23.33;;;14.87;;
18726;SDS011;9492;51.888;5.186;2022-12-18T12:58:33;23.37;;;14.80;;
18726;SDS011;9492;51.888;5.186;2022-12-18T13:01:10;23.70;;;14.83;;
18726;SDS011;9492;51.888;5.186;2022-12-18T13:04:00;23.03;;;14.90;;
18726;SDS011;9492;51.888;5.186;2022-12-18T13:08:55;25.63;;;16.00;;
18726;SDS011;9492;51.888;5.186;2022-12-18T13:11:29;23.27;;;15.17;;
18726;SDS011;9492;51.888;5.186;2022-12-18T13:14:25;23.80;;;13.80;;
18726;SDS011;9492;51.888;5.186;2022-12-18T13:16:52;24.13;;;14.17;;
18726;SDS011;9492;51.888;5.186;2022-12-18T13:19:38;26.37;;;14.17;;
18726;SDS011;9492;51.888;5.186;2022-12-18T13:22:04;21.83;;;13.33;;
18726;SDS011;9492;51.888;5.186;2022-12-18T13:24:30;26.63;;;14.77;;
18726;SDS011;9492;51.888;5.186;2022-12-18T13:26:57;25.07;;;15.70;;
18726;SDS011;9492;51.888;5.186;2022-12-18T13:32:23;23.40;;;14.10;;
18726;SDS011;9492;51.888;5.186;2022-12-18T13:37:52;23.97;;;14.23;;
18726;SDS011;9492;51.888;5.186;2022-12-18T13:43:13;23.40;;;14.93;;
18726;SDS011;9492;51.888;5.186;2022-12-18T13:48:24;23.87;;;14.87;;
18726;SDS011;9492;51.888;5.186;2022-12-18T13:53:27;24.23;;;14.97;;
18726;SDS011;9492;51.888;5.186;2022-12-18T13:55:55;22.00;;;14.93;;
18726;SDS011;9492;51.888;5.186;2022-12-18T13:58:21;22.63;;;14.57;;
18726;SDS011;9492;51.888;5.186;2022-12-18T14:00:47;21.30;;;14.03;;
18726;SDS011;9492;51.888;5.186;2022-12-18T14:03:21;22.63;;;14.57;;
18726;SDS011;9492;51.888;5.186;2022-12-18T14:05:52;19.50;;;14.23;;
18726;SDS011;9492;51.888;5.186;2022-12-18T14:08:18;22.30;;;13.87;;
18726;SDS011;9492;51.888;5.186;2022-12-18T14:10:45;27.63;;;15.60;;
18726;SDS011;9492;51.888;5.186;2022-12-18T14:13:17;21.67;;;14.37;;
18726;SDS011;9492;51.888;5.186;2022-12-18T14:15:46;24.53;;;15.23;;
18726;SDS011;9492;51.888;5.186;2022-12-18T14:20:45;25.60;;;16.63;;
18726;SDS011;9492;51.888;5.186;2022-12-18T14:23:25;23.90;;;15.70;;
18726;SDS011;9492;51.888;5.186;2022-12-18T14:25:51;25.23;;;15.50;;
18726;SDS011;9492;51.888;5.186;2022-12-18T14:28:17;23.90;;;15.90;;
18726;SDS011;9492;51.888;5.186;2022-12-18T14:30:44;23.87;;;16.17;;
18726;SDS011;9492;51.888;5.186;2022-12-18T14:33:12;23.83;;;15.87;;
18726;SDS011;9492;51.888;5.186;2022-12-18T14:35:40;22.37;;;14.30;;
18726;SDS011;9492;51.888;5.186;2022-12-18T14:40:41;27.17;;;16.10;;
18726;SDS011;9492;51.888;5.186;2022-12-18T14:43:10;27.53;;;15.57;;
18726;SDS011;9492;51.888;5.186;2022-12-18T14:45:37;23.33;;;14.83;;
18726;SDS011;9492;51.888;5.186;2022-12-18T14:48:07;25.43;;;15.50;;
18726;SDS011;9492;51.888;5.186;2022-12-18T14:50:34;22.23;;;15.20;;
18726;SDS011;9492;51.888;5.186;2022-12-18T14:53:00;25.90;;;15.30;;
18726;SDS011;9492;51.888;5.186;2022-12-18T14:55:26;23.67;;;15.60;;
18726;SDS011;9492;51.888;5.186;2022-12-18T14:57:53;28.50;;;15.70;;
18726;SDS011;9492;51.888;5.186;2022-12-18T15:00:21;22.67;;;14.27;;
18726;SDS011;9492;51.888;5.186;2022-12-18T15:02:55;25.20;;;15.60;;
18726;SDS011;9492;51.888;5.186;2022-12-18T15:07:48;25.90;;;15.47;;
18726;SDS011;9492;51.888;5.186;2022-12-18T15:20:31;26.33;;;16.00;;
18726;SDS011;9492;51.888;5.186;2022-12-18T15:22:58;24.23;;;15.83;;
18726;SDS011;9492;51.888;5.186;2022-12-18T15:25:30;24.17;;;15.33;;
18726;SDS011;9492;51.888;5.186;2022-12-18T15:27:57;20.93;;;14.73;;
18726;SDS011;9492;51.888;5.186;2022-12-18T15:30:23;24.47;;;15.57;;
18726;SDS011;9492;51.888;5.186;2022-12-18T15:32:50;23.87;;;15.07;;
18726;SDS011;9492;51.888;5.186;2022-12-18T15:37:43;27.37;;;15.53;;
18726;SDS011;9492;51.888;5.186;2022-12-18T15:40:17;26.50;;;15.50;;
18726;SDS011;9492;51.888;5.186;2022-12-18T15:42:43;27.83;;;15.43;;
18726;SDS011;9492;51.888;5.186;2022-12-18T15:45:28;22.27;;;14.97;;
18726;SDS011;9492;51.888;5.186;2022-12-18T15:47:54;26.27;;;14.37;;
18726;SDS011;9492;51.888;5.186;2022-12-18T15:50:20;26.23;;;15.43;;
18726;SDS011;9492;51.888;5.186;2022-12-18T15:52:47;27.03;;;16.00;;
18726;SDS011;9492;51.888;5.186;2022-12-18T15:55:15;24.40;;;15.33;;
18726;SDS011;9492;51.888;5.186;2022-12-18T15:58:05;26.03;;;14.83;;
18726;SDS011;9492;51.888;5.186;2022-12-18T16:00:32;25.83;;;15.93;;
18726;SDS011;9492;51.888;5.186;2022-12-18T16:02:59;26.13;;;16.00;;
18726;SDS011;9492;51.888;5.186;2022-12-18T16:05:26;23.97;;;14.67;;
18726;SDS011;9492;51.888;5.186;2022-12-18T16:07:52;25.17;;;15.50;;
18726;SDS011;9492;51.888;5.186;2022-12-18T16:10:18;29.10;;;15.80;;
18726;SDS011;9492;51.888;5.186;2022-12-18T16:12:44;23.67;;;15.47;;
18726;SDS011;9492;51.888;5.186;2022-12-18T16:15:14;23.67;;;15.37;;
18726;SDS011;9492;51.888;5.186;2022-12-18T16:17:41;23.30;;;14.73;;
18726;SDS011;9492;51.888;5.186;2022-12-18T16:20:17;30.70;;;16.33;;
18726;SDS011;9492;51.888;5.186;2022-12-18T16:22:44;26.90;;;16.23;;
18726;SDS011;9492;51.888;5.186;2022-12-18T16:25:18;23.93;;;14.80;;
18726;SDS011;9492;51.888;5.186;2022-12-18T16:27:45;25.53;;;15.37;;
18726;SDS011;9492;51.888;5.186;2022-12-18T16:30:21;26.87;;;16.63;;